Time;durP1;ratioP1;P1;durP2;ratioP2;P2;SDS_P1;SDS_P2;PMS_P1;PMS_P2;Temp;Humidity;BMP_temperature;BMP_pressure;BME280_temperature;BME280_humidity;BME280_pressure;Samples;Min_cycle;Max_cycle;Signal;HPM_P1;HPM_P2
2023/07/12 00:00:42;;;;;;;14.40;5.08;;;27.30;99.90;;;;;;1800764;78;21108;-80
2023/07/12 00:03:20;;;;;;;8.75;5.28;;;27.40;99.90;;;;;;1810596;78;21189;-79
2023/07/12 00:05:59;;;;;;;12.90;4.72;;;27.40;99.90;;;;;;1830997;78;21159;-79
2023/07/12 00:08:50;;;;;;;10.72;4.70;;;27.50;99.90;;;;;;1838839;77;21152;-79
2023/07/12 00:11:26;;;;;;;8.93;4.65;;;27.50;99.90;;;;;;1806956;78;21196;-81
2023/07/12 00:14:10;;;;;;;7.70;5.22;;;27.60;99.90;;;;;;1829806;77;21134;-83
2023/07/12 00:16:53;;;;;;;12.98;8.00;;;27.60;99.90;;;;;;1811998;78;21549;-83
2023/07/12 00:19:27;;;;;;;9.93;4.70;;;27.50;99.90;;;;;;1781568;78;21075;-82
2023/07/12 00:21:58;;;;;;;9.13;4.50;;;27.60;99.90;;;;;;1804166;78;21165;-82
2023/07/12 00:24:33;;;;;;;11.28;4.37;;;27.70;99.90;;;;;;1836136;77;21122;-80
2023/07/12 00:27:10;;;;;;;11.43;4.62;;;27.70;99.90;;;;;;1827045;78;21103;-81
2023/07/12 00:29:42;;;;;;;11.70;4.75;;;27.70;99.90;;;;;;1817920;77;21562;-80
2023/07/12 00:32:16;;;;;;;45.52;7.15;;;27.70;99.90;;;;;;1818725;77;21161;-80
2023/07/12 00:34:55;;;;;;;13.22;5.00;;;27.80;99.90;;;;;;1787518;79;21468;-80
2023/07/12 00:37:29;;;;;;;12.45;6.72;;;27.80;99.90;;;;;;1785037;79;21143;-80
2023/07/12 00:40:02;;;;;;;11.43;5.25;;;27.80;99.90;;;;;;1784172;79;21100;-83
2023/07/12 00:42:40;;;;;;;8.00;4.80;;;27.90;99.90;;;;;;1797562;79;21169;-80
2023/07/12 00:45:15;;;;;;;9.83;4.95;;;27.90;99.90;;;;;;1791904;79;21180;-79
2023/07/12 00:47:50;;;;;;;8.55;4.35;;;27.90;99.90;;;;;;1805439;78;21179;-81
2023/07/12 00:50:24;;;;;;;17.65;5.47;;;27.90;99.90;;;;;;1805326;78;21277;-80
2023/07/12 00:53:25;;;;;;;19.35;5.42;;;28.00;99.90;;;;;;1775441;79;21266;-84
2023/07/12 00:56:05;;;;;;;18.05;5.37;;;28.10;99.90;;;;;;1787862;79;21098;-81
2023/07/12 00:58:46;;;;;;;8.53;5.28;;;28.20;99.90;;;;;;1791832;79;21132;-78
2023/07/12 01:01:21;;;;;;;17.45;5.03;;;28.20;99.90;;;;;;1811936;79;21107;-84
2023/07/12 01:04:02;;;;;;;11.45;4.78;;;28.30;99.90;;;;;;1794153;79;21164;-80
2023/07/12 01:06:38;;;;;;;8.20;4.42;;;28.30;99.90;;;;;;1784061;80;21120;-80
2023/07/12 01:09:16;;;;;;;19.80;5.62;;;28.40;99.90;;;;;;1784018;79;21115;-82
2023/07/12 01:11:50;;;;;;;24.95;5.65;;;28.50;99.90;;;;;;1819101;78;21125;-84
2023/07/12 01:14:23;;;;;;;19.57;5.08;;;28.60;99.90;;;;;;1786191;79;21706;-77
2023/07/12 01:17:00;;;;;;;11.25;4.87;;;28.60;99.90;;;;;;1812411;79;21104;-80
2023/07/12 01:19:32;;;;;;;23.27;5.45;;;28.70;99.90;;;;;;1812765;78;21150;-80
2023/07/12 01:22:06;;;;;;;20.30;5.78;;;28.70;99.90;;;;;;1781875;79;21115;-80
2023/07/12 01:24:43;;;;;;;8.33;6.62;;;28.80;99.90;;;;;;1809150;79;21419;-78
2023/07/12 01:27:24;;;;;;;15.10;5.10;;;28.80;99.90;;;;;;1811021;79;21113;-81
2023/07/12 01:29:56;;;;;;;47.13;9.18;;;28.80;99.90;;;;;;1823109;77;21092;-82
2023/07/12 01:32:39;;;;;;;15.53;4.65;;;28.90;99.90;;;;;;1789158;78;21119;-83
2023/07/12 01:35:13;;;;;;;45.15;7.65;;;29.00;99.90;;;;;;1826559;77;21138;-86
2023/07/12 01:38:06;;;;;;;43.15;8.53;;;29.10;99.90;;;;;;1804525;78;21236;-84
2023/07/12 01:40:42;;;;;;;25.10;6.35;;;29.20;99.90;;;;;;1819470;77;21095;-82
2023/07/12 01:43:30;;;;;;;11.68;4.58;;;29.30;99.90;;;;;;1821817;79;21130;-83
2023/07/12 01:45:53;;;;;;;24.07;7.62;;;29.40;99.90;;;;;;1799801;77;21149;-83
2023/07/12 01:48:31;;;;;;;7.22;3.83;;;29.60;99.90;;;;;;1819780;79;21115;-85
2023/07/12 01:51:10;;;;;;;15.03;5.15;;;29.70;99.90;;;;;;1827459;77;21492;-87
2023/07/12 01:53:44;;;;;;;8.20;4.35;;;29.80;99.90;;;;;;1815839;77;21533;-85
2023/07/12 01:56:17;;;;;;;9.30;4.20;;;29.90;99.90;;;;;;1794512;79;21182;-83
2023/07/12 01:58:52;;;;;;;7.30;3.35;;;30.00;99.90;;;;;;1812164;78;21179;-86
2023/07/12 02:01:27;;;;;;;7.10;3.37;;;30.10;99.90;;;;;;1835780;76;21315;-87
2023/07/12 02:03:59;;;;;;;8.58;4.10;;;30.20;99.90;;;;;;1838166;76;21138;-86
2023/07/12 02:06:33;;;;;;;22.93;5.35;;;30.20;99.90;;;;;;1831962;77;21600;-86
2023/07/12 02:09:07;;;;;;;19.00;4.90;;;30.20;99.90;;;;;;1830127;77;21163;-84
2023/07/12 02:11:48;;;;;;;9.68;3.67;;;30.20;99.90;;;;;;1823515;77;21699;-83
2023/07/12 02:14:26;;;;;;;10.43;4.45;;;30.10;99.90;;;;;;1843512;77;21166;-83
2023/07/12 02:17:04;;;;;;;11.85;4.95;;;30.20;99.90;;;;;;1802052;79;21139;-82
2023/07/12 02:19:45;;;;;;;12.80;4.50;;;30.20;99.90;;;;;;1826226;77;21158;-84
2023/07/12 02:22:19;;;;;;;11.97;4.50;;;30.10;99.90;;;;;;1822512;77;21220;-85
2023/07/12 02:24:54;;;;;;;;;;;30.20;99.70;;;;;;1821671;79;21096;-84
2023/07/12 02:27:26;;;;;;;13.22;4.55;;;30.20;99.90;;;;;;1839078;77;20196;-84
2023/07/12 02:30:00;;;;;;;19.70;5.42;;;30.20;99.90;;;;;;1830357;76;21205;-88
2023/07/12 02:32:38;;;;;;;27.27;7.12;;;30.30;99.90;;;;;;1796893;78;21162;-87
2023/07/12 02:35:11;;;;;;;26.62;6.28;;;30.40;99.90;;;;;;1830735;77;21193;-84
2023/07/12 02:37:43;;;;;;;11.68;4.00;;;30.50;99.90;;;;;;1791212;78;21068;-88
2023/07/12 02:40:32;;;;;;;6.65;3.50;;;30.60;99.80;;;;;;1801928;78;21194;-83
2023/07/12 02:43:05;;;;;;;6.25;3.65;;;30.70;99.60;;;;;;1832227;77;21537;-86
2023/07/12 02:45:46;;;;;;;7.85;4.10;;;30.70;99.20;;;;;;1785983;79;21138;-87
2023/07/12 02:48:18;;;;;;;15.25;4.62;;;30.80;99.10;;;;;;1790785;79;21512;-89
2023/07/12 02:50:58;;;;;;;28.50;5.90;;;30.80;99.00;;;;;;1810735;78;21144;-81
2023/07/12 02:53:31;;;;;;;7.72;3.75;;;30.90;98.90;;;;;;1799818;79;21135;-84
2023/07/12 02:56:06;;;;;;;9.63;5.05;;;31.00;99.00;;;;;;1825802;76;21102;-83
2023/07/12 02:58:40;;;;;;;7.85;4.80;;;31.20;98.30;;;;;;1827011;77;21123;-83
2023/07/12 03:01:14;;;;;;;6.33;3.83;;;31.30;98.10;;;;;;1806323;78;21092;-84
2023/07/12 03:03:46;;;;;;;11.55;3.60;;;31.20;98.10;;;;;;1830970;77;21130;-83
2023/07/12 03:06:21;;;;;;;14.65;4.55;;;31.20;97.60;;;;;;1789005;78;21146;-83
2023/07/12 03:08:53;;;;;;;10.40;4.25;;;31.30;97.60;;;;;;1796924;79;21161;-81
2023/07/12 03:11:29;;;;;;;17.25;4.87;;;31.40;97.30;;;;;;1833891;77;21161;-79
2023/07/12 03:14:05;;;;;;;13.68;4.03;;;31.50;96.90;;;;;;1792366;78;21546;-81
2023/07/12 03:16:37;;;;;;;6.95;2.70;;;31.60;96.70;;;;;;1808892;78;21116;-80
2023/07/12 03:19:12;;;;;;;9.48;3.35;;;31.60;96.60;;;;;;1803820;78;21644;-81
2023/07/12 03:21:47;;;;;;;16.97;4.80;;;31.60;97.10;;;;;;1822618;77;21122;-83
2023/07/12 03:24:25;;;;;;;6.42;3.10;;;31.70;96.90;;;;;;1797498;78;21181;-85
2023/07/12 03:27:00;;;;;;;3.65;2.55;;;31.80;95.90;;;;;;1787618;79;21188;-80
2023/07/12 03:29:32;;;;;;;6.22;2.80;;;31.80;94.90;;;;;;1795308;79;21211;-83
2023/07/12 03:32:07;;;;;;;4.35;2.40;;;31.80;95.60;;;;;;1781848;78;21170;-83
2023/07/12 03:34:42;;;;;;;14.05;4.35;;;31.80;95.10;;;;;;1822617;77;21171;-82
2023/07/12 03:37:20;;;;;;;11.73;3.55;;;31.90;95.70;;;;;;1821824;78;21526;-82
2023/07/12 03:39:57;;;;;;;14.87;3.70;;;31.90;96.00;;;;;;1828284;78;21127;-82
2023/07/12 03:42:34;;;;;;;53.48;8.60;;;32.00;95.90;;;;;;1799005;79;21108;-84
2023/07/12 03:45:13;;;;;;;24.50;3.90;;;32.20;94.70;;;;;;1833074;77;21091;-81
2023/07/12 03:47:51;;;;;;;10.15;3.08;;;32.30;94.20;;;;;;1812298;78;21115;-83
2023/07/12 03:50:25;;;;;;;5.37;2.30;;;32.40;94.50;;;;;;1806376;77;21202;-78
2023/07/12 03:52:59;;;;;;;5.33;2.62;;;32.50;93.60;;;;;;1811310;79;21142;-77
2023/07/12 03:55:37;;;;;;;8.13;2.00;;;32.50;93.40;;;;;;1804379;79;21068;-79
2023/07/12 03:58:20;;;;;;;14.30;4.70;;;32.60;93.80;;;;;;1791095;79;21193;-79
2023/07/12 04:00:53;;;;;;;6.47;2.15;;;32.60;93.20;;;;;;1826492;77;21103;-84
2023/07/12 04:03:26;;;;;;;23.02;3.80;;;32.70;92.90;;;;;;1826946;77;21135;-83
2023/07/12 04:06:04;;;;;;;16.02;3.60;;;32.80;92.30;;;;;;1794935;79;21138;-81
2023/07/12 04:08:37;;;;;;;5.92;2.17;;;32.80;92.70;;;;;;1792424;79;21138;-81
2023/07/12 04:11:14;;;;;;;4.08;2.33;;;32.90;92.40;;;;;;1819740;79;21664;-83
2023/07/12 04:14:03;;;;;;;8.38;2.52;;;32.90;92.10;;;;;;1788157;79;21122;-79
2023/07/12 04:16:36;;;;;;;6.47;2.17;;;32.90;92.80;;;;;;1800594;79;21455;-84
2023/07/12 04:19:19;;;;;;;6.53;2.10;;;33.00;92.60;;;;;;1816127;79;21069;-80
2023/07/12 04:22:08;;;;;;;4.75;1.85;;;33.00;92.80;;;;;;1812515;78;21100;-79
2023/07/12 04:24:42;;;;;;;4.03;1.95;;;33.00;91.00;;;;;;1830601;77;21495;-78
2023/07/12 04:27:14;;;;;;;2.65;1.60;;;33.00;91.50;;;;;;1841158;77;21084;-78
2023/07/12 04:29:54;;;;;;;;;;;32.90;91.40;;;;;;1839910;77;21150;-78
2023/07/12 04:32:47;;;;;;;6.03;2.17;;;32.90;92.10;;;;;;1829937;77;20127;-79
2023/07/12 04:35:26;;;;;;;4.55;2.10;;;33.00;92.30;;;;;;1798657;78;21157;-78
2023/07/12 04:38:02;;;;;;;6.70;2.00;;;33.10;92.30;;;;;;1837197;77;21107;-79
2023/07/12 04:40:46;;;;;;;5.17;2.20;;;33.20;92.30;;;;;;1834688;77;21099;-82
2023/07/12 04:43:27;;;;;;;4.70;2.35;;;33.30;92.20;;;;;;1812055;78;21115;-86
2023/07/12 04:46:04;;;;;;;4.53;2.05;;;33.00;92.00;;;;;;1772997;80;21209;-84
2023/07/12 04:48:45;;;;;;;15.90;4.87;;;33.30;92.30;;;;;;1780164;80;21147;-83
2023/07/12 04:51:23;;;;;;;5.95;2.58;;;33.20;92.70;;;;;;1769877;80;21126;-84
2023/07/12 04:53:57;;;;;;;12.47;3.50;;;33.30;92.10;;;;;;1767634;80;21186;-82
2023/07/12 04:56:31;;;;;;;8.40;3.35;;;33.30;92.30;;;;;;1817455;77;21059;-82
2023/07/12 04:59:07;;;;;;;4.05;1.92;;;33.30;92.20;;;;;;1820918;77;21167;-80
2023/07/12 05:01:43;;;;;;;4.80;2.20;;;33.10;91.70;;;;;;1834834;77;21179;-83
2023/07/12 05:04:18;;;;;;;10.25;2.60;;;33.10;91.80;;;;;;1822687;77;21149;-84
2023/07/12 05:06:54;;;;;;;9.63;2.80;;;33.20;92.60;;;;;;1830861;77;21542;-78
2023/07/12 05:09:30;;;;;;;6.30;2.40;;;33.30;92.20;;;;;;1815826;77;21095;-85
2023/07/12 05:12:03;;;;;;;5.67;2.50;;;33.40;91.90;;;;;;1801807;78;21166;-83
2023/07/12 05:14:36;;;;;;;4.17;1.90;;;33.60;92.10;;;;;;1769092;80;21190;-86
2023/07/12 05:17:11;;;;;;;6.92;2.42;;;33.70;91.80;;;;;;1826656;78;21177;-83
2023/07/12 05:19:47;;;;;;;3.87;2.98;;;33.80;91.50;;;;;;1812669;78;21111;-84
2023/07/12 05:22:27;;;;;;;4.37;2.80;;;34.00;91.00;;;;;;1773301;80;21146;-86
2023/07/12 05:25:01;;;;;;;4.65;3.25;;;34.10;91.70;;;;;;1818409;77;21193;-83
2023/07/12 05:27:36;;;;;;;5.70;2.10;;;34.00;91.60;;;;;;1765993;80;21527;-83
2023/07/12 05:30:11;;;;;;;4.65;2.55;;;34.00;91.20;;;;;;1812546;77;21139;-82
2023/07/12 05:32:48;;;;;;;4.65;1.92;;;34.10;91.50;;;;;;1810961;77;21092;-79
2023/07/12 05:35:37;;;;;;;3.42;2.20;;;34.10;90.90;;;;;;1821136;77;21187;-83
2023/07/12 05:38:12;;;;;;;5.92;2.50;;;34.20;91.10;;;;;;1818802;77;21122;-84
2023/07/12 05:40:45;;;;;;;4.47;2.20;;;34.20;90.80;;;;;;1842620;77;21123;-85
2023/07/12 05:43:26;;;;;;;3.20;1.82;;;34.20;91.40;;;;;;1791386;79;21105;-83
2023/07/12 05:46:06;;;;;;;5.10;1.87;;;34.30;91.00;;;;;;1788536;79;21119;-86
2023/07/12 05:48:43;;;;;;;5.65;2.62;;;34.30;91.10;;;;;;1787173;79;21952;-87
2023/07/12 05:51:18;;;;;;;5.78;2.20;;;34.30;91.30;;;;;;1801809;79;21123;-84
2023/07/12 05:53:55;;;;;;;3.70;1.85;;;34.30;91.00;;;;;;1825996;78;21249;-80
2023/07/12 05:56:28;;;;;;;3.62;2.30;;;34.30;91.30;;;;;;1830608;78;21149;-84
2023/07/12 05:59:01;;;;;;;12.47;3.62;;;34.30;90.80;;;;;;1791680;79;21092;-84
2023/07/12 06:01:38;;;;;;;9.35;2.47;;;34.30;90.80;;;;;;1806362;78;21624;-83
2023/07/12 06:04:12;;;;;;;11.43;3.25;;;34.30;89.30;;;;;;1793997;79;21519;-81
2023/07/12 06:06:52;;;;;;;5.10;2.37;;;34.30;90.40;;;;;;1820091;77;21098;-82
2023/07/12 06:09:29;;;;;;;6.90;2.83;;;34.40;90.50;;;;;;1829271;77;21123;-83
2023/07/12 06:12:02;;;;;;;4.20;1.90;;;34.40;90.40;;;;;;1796236;79;21575;-82
2023/07/12 06:14:37;;;;;;;13.53;3.58;;;34.40;89.20;;;;;;1825541;77;21079;-82
2023/07/12 06:17:10;;;;;;;18.48;5.25;;;34.40;89.90;;;;;;1790906;79;21127;-80
2023/07/12 06:19:45;;;;;;;5.75;2.05;;;34.40;90.30;;;;;;1837134;77;21080;-83
2023/07/12 06:22:16;;;;;;;5.83;2.70;;;34.40;90.00;;;;;;1792743;79;21154;-81
2023/07/12 06:24:50;;;;;;;12.45;4.40;;;34.40;90.50;;;;;;1806675;78;21123;-85
2023/07/12 06:27:22;;;;;;;6.15;2.37;;;34.30;89.70;;;;;;1789393;79;21159;-79
2023/07/12 06:29:56;;;;;;;13.10;4.17;;;34.30;90.80;;;;;;1811525;78;21096;-79
2023/07/12 06:32:31;;;;;;;24.82;4.45;;;34.30;88.70;;;;;;1820674;77;21165;-80
2023/07/12 06:35:08;;;;;;;21.77;3.85;;;34.40;89.50;;;;;;1793951;77;21571;-82
2023/07/12 06:37:59;;;;;;;20.88;4.40;;;34.30;88.30;;;;;;1823218;77;21201;-85
2023/07/12 06:40:21;;;;;;;12.82;2.92;;;34.30;89.00;;;;;;1817263;78;21173;-85
2023/07/12 06:43:04;;;;;;;9.90;1.98;;;34.20;89.10;;;;;;1819492;79;21136;-83
2023/07/12 06:45:40;;;;;;;28.20;5.12;;;34.20;87.60;;;;;;1828255;77;21618;-82
2023/07/12 06:48:18;;;;;;;20.15;4.67;;;34.20;88.40;;;;;;1786085;79;21138;-84
2023/07/12 06:50:52;;;;;;;30.68;5.35;;;34.30;89.20;;;;;;1793188;78;21166;-81
2023/07/12 06:53:26;;;;;;;24.90;6.47;;;34.30;89.60;;;;;;1794907;78;21111;-84
2023/07/12 06:55:59;;;;;;;18.25;3.37;;;34.40;89.40;;;;;;1798249;78;21785;-82
2023/07/12 06:58:30;;;;;;;14.63;2.60;;;34.50;88.40;;;;;;1822815;77;21115;-82
2023/07/12 07:01:04;;;;;;;12.33;3.05;;;34.50;87.00;;;;;;1836807;77;21174;-82
2023/07/12 07:03:42;;;;;;;11.80;2.55;;;34.60;86.40;;;;;;1790987;80;21116;-83
2023/07/12 07:06:14;;;;;;;20.82;2.90;;;34.60;86.50;;;;;;1797362;78;21160;-84
2023/07/12 07:09:05;;;;;;;6.95;2.37;;;34.50;85.30;;;;;;1820787;77;21094;-80
2023/07/12 07:11:41;;;;;;;65.80;8.98;;;34.50;87.30;;;;;;1791984;79;21103;-82
2023/07/12 07:14:20;;;;;;;45.33;6.55;;;34.50;85.20;;;;;;1847214;77;21084;-84
2023/07/12 07:16:52;;;;;;;3.37;1.25;;;34.50;84.60;;;;;;1835947;77;21099;-81
2023/07/12 07:19:25;;;;;;;33.73;4.78;;;34.60;83.00;;;;;;1846001;77;21076;-84
2023/07/12 07:21:58;;;;;;;5.58;1.10;;;34.50;84.60;;;;;;1806386;78;21204;-80
2023/07/12 07:24:43;;;;;;;30.27;4.60;;;34.50;81.60;;;;;;1799019;78;21136;-82
2023/07/12 07:27:22;;;;;;;24.52;4.83;;;34.50;82.70;;;;;;1798526;78;21095;-82
2023/07/12 07:29:54;;;;;;;13.25;2.40;;;34.50;82.90;;;;;;1814272;79;21134;-83
2023/07/12 07:32:27;;;;;;;6.67;1.20;;;34.50;82.90;;;;;;1796687;79;21176;-80
2023/07/12 07:35:00;;;;;;;3.75;0.88;;;34.50;82.40;;;;;;1810289;78;21127;-81
2023/07/12 07:37:35;;;;;;;7.90;2.55;;;34.50;81.60;;;;;;1805053;78;21075;-84
2023/07/12 07:40:26;;;;;;;25.88;3.70;;;34.50;82.70;;;;;;1796131;79;21249;-81
2023/07/12 07:43:18;;;;;;;35.58;5.35;;;34.50;81.60;;;;;;1833785;77;21139;-81
2023/07/12 07:45:53;;;;;;;14.90;3.05;;;34.50;83.00;;;;;;1824622;77;21524;-84
2023/07/12 07:48:43;;;;;;;12.65;3.05;;;34.50;84.20;;;;;;1803521;78;21256;-83
2023/07/12 07:51:14;;;;;;;21.62;4.30;;;34.60;84.20;;;;;;1838731;77;21115;-81
2023/07/12 07:53:51;;;;;;;9.60;2.47;;;34.60;82.50;;;;;;1833485;77;21076;-85
2023/07/12 07:56:26;;;;;;;84.90;13.45;;;34.60;83.20;;;;;;1828405;77;21220;-85
2023/07/12 07:59:06;;;;;;;14.63;3.42;;;34.60;84.50;;;;;;1790661;79;21103;-81
2023/07/12 08:01:55;;;;;;;5.97;2.45;;;34.60;83.80;;;;;;1805950;78;21091;-84
2023/07/12 08:04:39;;;;;;;29.07;4.90;;;34.60;83.30;;;;;;1801172;78;21147;-85
2023/07/12 08:07:06;;;;;;;17.67;3.05;;;34.70;84.70;;;;;;1836033;77;21092;-84
2023/07/12 08:10:04;;;;;;;15.18;2.90;;;34.70;84.90;;;;;;1814513;78;21209;-86
2023/07/12 08:12:36;;;;;;;5.70;2.20;;;34.70;84.50;;;;;;1798864;79;21099;-83
2023/07/12 08:15:25;;;;;;;10.38;2.92;;;34.80;84.80;;;;;;1844635;76;21084;-85
2023/07/12 08:18:00;;;;;;;11.73;2.02;;;34.70;85.90;;;;;;1803527;79;21194;-83
2023/07/12 08:20:43;;;;;;;8.85;2.40;;;34.70;86.20;;;;;;1804476;78;21067;-85
2023/07/12 08:23:15;;;;;;;8.80;1.80;;;34.60;86.40;;;;;;1803683;78;21640;-84
2023/07/12 08:25:51;;;;;;;6.97;1.98;;;34.60;86.60;;;;;;1805385;78;21092;-84
2023/07/12 08:28:23;;;;;;;13.32;3.33;;;34.60;85.50;;;;;;1826639;77;21104;-83
2023/07/12 08:30:55;;;;;;;14.47;3.83;;;34.50;86.40;;;;;;1828204;77;21197;-84
2023/07/12 08:33:32;;;;;;;28.85;4.10;;;34.50;87.30;;;;;;1829026;77;21096;-86
2023/07/12 08:36:25;;;;;;;15.88;2.77;;;34.40;88.00;;;;;;1794372;78;21133;-86
2023/07/12 08:38:56;;;;;;;31.52;5.00;;;34.30;87.10;;;;;;1812095;78;21100;-85
2023/07/12 08:41:33;;;;;;;12.03;2.55;;;34.20;87.50;;;;;;1806971;79;21473;-82
2023/07/12 08:44:16;;;;;;;15.25;4.47;;;34.20;87.10;;;;;;1790902;79;21150;-83
2023/07/12 08:46:55;;;;;;;7.30;2.77;;;34.20;88.40;;;;;;1785143;80;21083;-80
2023/07/12 08:49:38;;;;;;;123.15;18.35;;;34.20;89.00;;;;;;1805644;79;21110;-80
2023/07/12 08:52:13;;;;;;;76.75;11.10;;;34.20;89.30;;;;;;1816040;78;21123;-81
2023/07/12 08:54:50;;;;;;;17.05;3.83;;;34.30;89.50;;;;;;1813681;79;21169;-81
2023/07/12 08:57:25;;;;;;;7.87;2.45;;;34.30;89.10;;;;;;1776637;80;21099;-79
2023/07/12 09:00:12;;;;;;;22.62;3.90;;;34.30;89.10;;;;;;1811821;78;21092;-79
2023/07/12 09:03:02;;;;;;;4.60;1.60;;;34.20;89.40;;;;;;1799361;79;21418;-81
2023/07/12 09:05:37;;;;;;;2.72;1.65;;;34.20;88.90;;;;;;1819158;78;21453;-79
2023/07/12 09:08:22;;;;;;;7.42;1.80;;;34.10;89.10;;;;;;1814709;78;21094;-81
2023/07/12 09:11:19;;;;;;;13.75;2.83;;;34.00;89.30;;;;;;1813818;79;21514;-83
2023/07/12 09:13:54;;;;;;;18.20;3.30;;;34.00;89.50;;;;;;1828263;76;21575;-84
2023/07/12 09:16:34;;;;;;;42.55;6.03;;;33.90;89.40;;;;;;1814494;77;21112;-85
2023/07/12 09:19:27;;;;;;;18.10;2.83;;;33.90;90.00;;;;;;1815624;78;21231;-82
2023/07/12 09:22:03;;;;;;;23.12;3.83;;;33.90;89.50;;;;;;1799880;78;21536;-81
2023/07/12 09:24:38;;;;;;;8.58;1.82;;;33.90;89.50;;;;;;1769311;80;21071;-85
2023/07/12 09:27:19;;;;;;;62.67;8.93;;;33.80;89.30;;;;;;1759312;78;21127;-81
2023/07/12 09:30:01;;;;;;;41.88;7.75;;;33.80;89.80;;;;;;1785472;79;21048;-85
2023/07/12 09:32:43;;;;;;;15.80;4.35;;;33.80;90.20;;;;;;1766982;81;21664;-81
2023/07/12 09:35:32;;;;;;;35.05;5.70;;;33.80;90.20;;;;;;1808322;78;21201;-81
2023/07/12 09:38:15;;;;;;;18.57;3.52;;;33.80;90.20;;;;;;1793433;79;21091;-79
2023/07/12 09:40:51;;;;;;;20.65;6.70;;;33.80;90.10;;;;;;1799400;78;21586;-83
2023/07/12 09:43:36;;;;;;;17.30;3.62;;;33.70;90.30;;;;;;1798637;78;21127;-84
2023/07/12 09:46:37;;;;;;;8.68;2.65;;;33.70;90.40;;;;;;1809689;78;21127;-80
2023/07/12 09:49:26;;;;;;;10.10;2.50;;;33.60;90.30;;;;;;1834559;77;21155;-82
2023/07/12 09:52:17;;;;;;;8.80;2.17;;;33.60;90.50;;;;;;1798180;78;21116;-81
2023/07/12 09:55:15;;;;;;;8.65;4.40;;;33.60;90.60;;;;;;1833148;77;21173;-83
2023/07/12 09:57:51;;;;;;;5.80;2.90;;;33.50;90.80;;;;;;1798291;78;21075;-80
2023/07/12 10:00:33;;;;;;;15.53;3.20;;;33.60;91.10;;;;;;1790963;78;21067;-85
2023/07/12 10:03:13;;;;;;;8.40;2.35;;;33.60;90.80;;;;;;1791826;78;21144;-83
2023/07/12 10:05:55;;;;;;;8.13;2.10;;;33.60;90.70;;;;;;1833149;77;21166;-83
2023/07/12 10:08:50;;;;;;;15.40;3.67;;;33.60;90.60;;;;;;1783851;79;21091;-85
2023/07/12 10:11:37;;;;;;;8.13;2.58;;;33.50;90.70;;;;;;1738512;81;21129;-83
2023/07/12 10:14:21;;;;;;;9.45;3.22;;;33.50;90.80;;;;;;1711229;82;21330;-84
2023/07/12 10:16:56;;;;;;;9.98;3.00;;;33.50;91.10;;;;;;1767824;78;21110;-85
2023/07/12 10:19:35;;;;;;;5.37;2.35;;;33.40;91.10;;;;;;1825498;77;21141;-85
2023/07/12 10:22:29;;;;;;;12.50;3.77;;;33.40;91.10;;;;;;1791214;78;21220;-80
2023/07/12 10:25:04;;;;;;;8.10;3.12;;;33.40;91.50;;;;;;1819683;77;21158;-84
2023/07/12 10:27:39;;;;;;;8.70;3.10;;;33.30;91.50;;;;;;1826437;77;21118;-82
2023/07/12 10:30:21;;;;;;;13.98;3.02;;;33.30;91.50;;;;;;1833354;77;21104;-83
2023/07/12 10:33:06;;;;;;;5.47;2.62;;;33.30;91.50;;;;;;1836132;77;21177;-84
2023/07/12 10:35:56;;;;;;;8.60;3.00;;;33.30;91.40;;;;;;1824354;77;21263;-81
2023/07/12 10:38:30;;;;;;;7.87;3.12;;;33.20;91.70;;;;;;1824633;77;21117;-82
2023/07/12 10:41:11;;;;;;;13.90;3.35;;;33.20;91.70;;;;;;1800916;77;21166;-83
2023/07/12 10:43:54;;;;;;;25.43;5.35;;;33.20;91.80;;;;;;1827604;77;21186;-82
2023/07/12 10:46:34;;;;;;;15.05;3.95;;;33.20;92.00;;;;;;1831838;77;21574;-83
2023/07/12 10:49:19;;;;;;;8.43;3.75;;;33.10;91.90;;;;;;1825762;77;21267;-83
2023/07/12 10:52:15;;;;;;;10.45;4.90;;;33.10;92.00;;;;;;1833225;77;21043;-80
2023/07/12 10:54:51;;;;;;;11.00;2.50;;;33.10;92.20;;;;;;1772605;78;21194;-85
2023/07/12 10:57:31;;;;;;;5.95;2.15;;;33.00;91.70;;;;;;1813649;77;21095;-83
2023/07/12 11:00:24;;;;;;;5.08;2.20;;;32.80;91.70;;;;;;1825565;77;21085;-82
2023/07/12 11:03:06;;;;;;;3.77;2.00;;;32.50;92.10;;;;;;1796418;78;21241;-84
2023/07/12 11:06:04;;;;;;;5.33;1.70;;;32.20;92.60;;;;;;1821490;77;21746;-85
2023/07/12 11:08:40;;;;;;;6.20;2.40;;;32.00;93.20;;;;;;1822478;77;21181;-81
2023/07/12 11:11:16;;;;;;;4.25;2.10;;;31.80;93.30;;;;;;1828772;77;21189;-84
2023/07/12 11:13:57;;;;;;;5.17;1.75;;;31.60;93.50;;;;;;1819596;79;21082;-84
2023/07/12 11:16:32;;;;;;;3.95;1.98;;;31.50;93.70;;;;;;1822024;77;21134;-88
2023/07/12 11:19:12;;;;;;;6.12;2.17;;;31.40;93.90;;;;;;1825345;77;21158;-83
2023/07/12 11:21:52;;;;;;;4.40;1.72;;;31.30;94.00;;;;;;1831553;77;21146;-81
2023/07/12 11:24:44;;;;;;;3.52;1.60;;;31.40;94.30;;;;;;1808837;78;21155;-87
2023/07/12 11:27:42;;;;;;;4.30;1.60;;;31.30;94.40;;;;;;1795314;78;21216;-87
2023/07/12 11:30:33;;;;;;;6.28;1.67;;;31.30;94.50;;;;;;1837068;77;21233;-84
2023/07/12 11:33:20;;;;;;;3.40;1.62;;;31.30;94.70;;;;;;1830736;77;21087;-89
2023/07/12 11:36:05;;;;;;;5.28;1.95;;;31.20;94.90;;;;;;1801875;77;21139;-86
2023/07/12 11:38:40;;;;;;;7.60;2.10;;;31.10;95.00;;;;;;1823593;77;21103;-81
2023/07/12 11:41:26;;;;;;;3.90;1.70;;;31.10;94.80;;;;;;1842906;77;21179;-82
2023/07/12 11:44:08;;;;;;;4.75;2.00;;;31.10;94.80;;;;;;1833141;77;21107;-84
2023/07/12 11:46:53;;;;;;;6.03;2.15;;;31.10;94.70;;;;;;1830371;77;21170;-86
2023/07/12 11:49:31;;;;;;;6.83;2.25;;;31.00;94.80;;;;;;1808877;77;21619;-86
2023/07/12 11:52:07;;;;;;;4.42;1.87;;;31.00;95.00;;;;;;1832404;77;21174;-82
2023/07/12 11:54:56;;;;;;;5.30;1.85;;;30.90;95.10;;;;;;1833278;77;21169;-82
2023/07/12 11:57:33;;;;;;;8.13;2.00;;;30.80;95.20;;;;;;1833584;77;21126;-83
2023/07/12 12:00:19;;;;;;;4.53;1.77;;;30.70;95.00;;;;;;1832356;77;21091;-83
2023/07/12 12:02:55;;;;;;;3.15;1.10;;;30.70;94.90;;;;;;1832226;77;21089;-84
2023/07/12 12:05:46;;;;;;;3.55;1.25;;;30.70;94.40;;;;;;1835122;77;21120;-82
2023/07/12 12:08:30;;;;;;;8.23;1.65;;;30.50;94.40;;;;;;1828707;77;21112;-83
2023/07/12 12:11:20;;;;;;;6.97;3.08;;;30.40;94.10;;;;;;1835568;77;21191;-82
2023/07/12 12:14:20;;;;;;;4.50;1.40;;;30.30;94.30;;;;;;1800934;78;21133;-80
2023/07/12 12:16:56;;;;;;;3.55;1.17;;;30.20;94.90;;;;;;1798948;78;21254;-84
2023/07/12 12:19:30;;;;;;;9.33;1.30;;;30.20;94.50;;;;;;1779155;78;21096;-84
2023/07/12 12:22:12;;;;;;;2.95;1.07;;;30.20;94.30;;;;;;1819794;77;21080;-81
2023/07/12 12:24:52;;;;;;;7.17;1.67;;;30.20;94.20;;;;;;1822194;77;21173;-83
2023/07/12 12:27:48;;;;;;;3.05;1.12;;;30.20;94.10;;;;;;1798584;79;21563;-85
2023/07/12 12:30:26;;;;;;;3.62;1.45;;;30.10;94.00;;;;;;1795891;79;21656;-85
2023/07/12 12:33:05;;;;;;;;;;;30.10;94.00;;;;;;1793600;79;21162;-82
2023/07/12 12:35:49;;;;;;;3.87;1.25;;;30.10;94.20;;;;;;1807866;77;20233;-85
2023/07/12 12:38:31;;;;;;;7.92;1.55;;;30.10;94.10;;;;;;1823342;78;21147;-87
2023/07/12 12:41:18;;;;;;;5.10;1.60;;;30.20;94.00;;;;;;1792255;79;21214;-82
2023/07/12 12:44:11;;;;;;;5.87;1.70;;;30.20;93.80;;;;;;1795838;79;21586;-84
2023/07/12 12:46:42;;;;;;;4.72;1.70;;;30.20;94.00;;;;;;1821438;77;21099;-81
2023/07/12 12:49:27;;;;;;;3.60;1.52;;;30.10;94.10;;;;;;1824518;77;21118;-85
2023/07/12 12:52:27;;;;;;;6.03;1.82;;;30.00;94.40;;;;;;1805311;79;21171;-84
2023/07/12 12:55:11;;;;;;;16.30;2.45;;;29.90;94.60;;;;;;1799355;79;21545;-85
2023/07/12 12:57:46;;;;;;;3.50;2.08;;;29.80;94.50;;;;;;1800011;78;21615;-85
2023/07/12 13:00:25;;;;;;;5.42;2.60;;;29.70;94.80;;;;;;1806484;78;21225;-86
2023/07/12 13:03:01;;;;;;;4.90;2.75;;;29.60;95.00;;;;;;1808090;78;21261;-82
2023/07/12 13:05:36;;;;;;;5.83;2.10;;;29.50;95.20;;;;;;1805834;78;21100;-83
2023/07/12 13:08:20;;;;;;;5.40;2.10;;;29.50;95.10;;;;;;1836924;77;21047;-82
2023/07/12 13:10:56;;;;;;;4.17;1.98;;;29.50;95.20;;;;;;1807375;78;21198;-82
2023/07/12 13:13:39;;;;;;;3.60;2.02;;;29.60;95.20;;;;;;1791613;80;21099;-82
2023/07/12 13:16:24;;;;;;;5.28;2.15;;;29.50;95.10;;;;;;1789160;79;21082;-84
2023/07/12 13:19:00;;;;;;;5.40;1.62;;;29.60;95.30;;;;;;1811683;79;21211;-84
2023/07/12 13:21:37;;;;;;;3.92;1.57;;;29.60;95.40;;;;;;1811816;79;21118;-85
2023/07/12 13:24:11;;;;;;;3.58;1.65;;;29.60;95.30;;;;;;1821421;77;21135;-81
2023/07/12 13:26:49;;;;;;;3.98;1.67;;;29.60;95.40;;;;;;1794642;79;21095;-79
2023/07/12 13:29:26;;;;;;;5.15;2.33;;;29.60;95.40;;;;;;1795482;79;21129;-83
2023/07/12 13:32:06;;;;;;;5.25;2.40;;;29.70;95.30;;;;;;1828350;77;21174;-82
2023/07/12 13:34:56;;;;;;;4.72;2.15;;;29.70;95.30;;;;;;1806208;78;21136;-81
2023/07/12 13:37:45;;;;;;;7.75;3.22;;;29.70;95.20;;;;;;1804184;78;21088;-85
2023/07/12 13:40:21;;;;;;;5.87;2.35;;;29.70;95.30;;;;;;1803979;78;21072;-83
2023/07/12 13:42:55;;;;;;;5.75;2.50;;;29.70;95.60;;;;;;1801865;78;21154;-84